Skip Navigation Links
NOAA logo - Click to go to the NOAA homepage
NOAA's National Weather Service
Alaska Aviation Weather Unit
  NWS logo - Click to go to the NWS homepage
Left Navbar Graphic     00 AKDT = 08 GMT

   
NOAA is celebrating 200 years of science, service, and stewardship. Visit the NOAA 200th celebration Web site to learn more.
USA.gov is the U.S. Government's official Web portal to all Federal, state and local government Web resources and services.
Facebook
NWS on Facebook

Important Change Regarding the AAWU Web Presence

 

Over the last several months, the AAWU has been working to navigate its webpages to a nationally supported server. Security, as well as other needs, have necessitated the change.  We have been given an extension for the site changeover while we diligently work at addressing feedback received. As of July 14, 2017, aawu.arh.noaa.gov will be discontinued. The new AAWU web address is weather.gov/aawu. It is now live and will run in-parallel with the old site until it is discontinued on July 14, 2017. Please continue to send any feedback or questions regarding the new webpages to nws.ar.aawu.webauthors@noaa.gov.  Thank you for your patience during this time of transition.
AAWU Home :: Display TAF Add Bookmark
TAF PASN 240543Z 2406/2506  32012G18KT P6SM -SHRA SCT025 BKN040
      TEMPO 2406/2410 BKN020 OVC035
     FM241300 32016G22KT P6SM -SHRA BKN025
     FM241800 32022G28KT P6SM -RA BKN010 OVC025=

4711
FTAK31 PANC 240543
TAFAKN
TAF

METAR PASN 240253Z AUTO 33016G24KT 10SM FEW027 SCT044 07/02 A2973 RMK AO2 RAE22 SLP069 P0000 60002 T00720022 56009 TSNO= METAR PASN 240353Z AUTO 34014KT 10SM -RA SCT026 BKN033 OVC042 06/03 A2973 RMK AO2 RAB49 SLP069 P0000 T00610033 TSNO= PASN 240400Z AUTO 32016G21KT 10SM -RA BKN026 OVC036 06/03 A2974= PASN 240414Z AUTO 32010KT 10SM -RA FEW026 OVC034 06/03 A2973= METAR PASN 240453Z AUTO 32010KT 10SM FEW024 SCT031 SCT040 05/03 A2973 RMK AO2 RAE17 SLP069 P0000 T00500028 TSNO= METAR PASN 240553Z AUTO 32010KT 10SM FEW028 BKN035 BKN045 05/03 A2973 RMK AO2 SLP069 60002 T00500028 10083 20044 52000 TSNO= METAR PASN 240653Z AUTO 30010KT 10SM -RA FEW026 BKN035 04/03 A2974 RMK AO2 RAB43 SLP070 P0000 T00440028 TSNO= METAR PASN 240753Z AUTO 32016G21KT 10SM FEW023 SCT031 BKN039 05/03 A2973 RMK AO2 RAE0658B22E34 SLP069 P0000 T00500028 TSNO=
 Alaska TAF Map

NOAA's National Weather Service
Alaska Aviation Weather Unit
6930 Sand Lake Road
Anchorage, AK 99502-1845
Disclaimer
Credits
Glossary
Privacy Policy
About Us
Career Opportunities
Contact AAWU Internet Services Site last modified: April, 17th 2012